createdAt,value
2023-04-18T00:00:51.313Z,8.67
2023-04-18T00:03:18.341Z,7.73
2023-04-18T00:05:48.438Z,9.07
2023-04-18T00:08:15.702Z,11.23
2023-04-18T00:10:42.480Z,8.27
2023-04-18T00:13:10.331Z,8.90
2023-04-18T00:15:37.233Z,10.17
2023-04-18T00:18:04.222Z,9.00
2023-04-18T00:20:31.116Z,10.70
2023-04-18T00:22:58.091Z,7.17
2023-04-18T00:25:24.987Z,9.67
2023-04-18T00:27:51.866Z,6.97
2023-04-18T00:30:18.652Z,7.50
2023-04-18T00:32:45.541Z,7.67
2023-04-18T00:35:12.343Z,5.70
2023-04-18T00:37:39.176Z,7.03
2023-04-18T00:40:06.548Z,9.97
2023-04-18T00:42:33.582Z,4.90
2023-04-18T00:45:00.444Z,6.67
2023-04-18T00:47:27.405Z,8.00
2023-04-18T00:49:55.072Z,6.97
2023-04-18T00:52:22.069Z,8.27
2023-04-18T00:54:49.043Z,6.73
2023-04-18T00:57:16.505Z,7.40
2023-04-18T00:59:43.419Z,6.17
2023-04-18T01:02:10.689Z,7.67
2023-04-18T01:04:37.577Z,10.43
2023-04-18T01:07:04.925Z,6.47
2023-04-18T01:09:31.860Z,6.33
2023-04-18T01:11:58.639Z,5.17
2023-04-18T01:14:25.525Z,6.93
2023-04-18T01:16:53.266Z,8.40
2023-04-18T01:19:20.067Z,6.00
2023-04-18T01:21:47.432Z,10.50
2023-04-18T01:24:15.441Z,8.13
2023-04-18T01:26:44.278Z,8.10
2023-04-18T01:29:11.374Z,6.67
2023-04-18T01:31:38.580Z,5.87
2023-04-18T01:34:07.620Z,6.40
2023-04-18T01:36:35.167Z,6.47
2023-04-18T01:39:02.526Z,5.70
2023-04-18T01:41:32.874Z,5.97
2023-04-18T01:44:00.452Z,8.33
2023-04-18T01:46:27.735Z,6.10
2023-04-18T01:48:54.897Z,5.83
2023-04-18T01:51:21.839Z,7.27
2023-04-18T01:53:48.874Z,6.33
2023-04-18T01:56:15.829Z,5.57
2023-04-18T01:58:42.744Z,6.37
2023-04-18T02:01:09.553Z,6.20
2023-04-18T02:03:38.188Z,5.87
2023-04-18T02:06:05.546Z,7.50
2023-04-18T02:08:35.793Z,5.97
2023-04-18T02:11:04.859Z,7.23
2023-04-18T02:13:32.117Z,7.03
2023-04-18T02:15:59.071Z,5.37
2023-04-18T02:18:26.755Z,6.70
2023-04-18T02:20:53.707Z,5.23
2023-04-18T02:23:22.107Z,6.07
2023-04-18T02:25:49.404Z,5.17
2023-04-18T02:28:17.538Z,6.00
2023-04-18T02:30:44.404Z,5.33
2023-04-18T02:33:11.248Z,7.33
2023-04-18T02:35:38.063Z,6.20
2023-04-18T02:38:05.029Z,5.47
2023-04-18T02:40:31.823Z,4.90
2023-04-18T02:42:59.578Z,6.23
2023-04-18T02:45:26.551Z,5.70
2023-04-18T02:47:56.551Z,4.27
2023-04-18T02:50:24.705Z,4.20
2023-04-18T02:52:53.438Z,4.57
2023-04-18T02:55:22.354Z,5.17
2023-04-18T02:57:49.720Z,6.47
2023-04-18T03:00:19.911Z,5.10
2023-04-18T03:03:07.234Z,5.10
2023-04-18T03:05:54.623Z,6.50
2023-04-18T03:08:21.559Z,4.40
2023-04-18T03:10:49.051Z,4.80
2023-04-18T03:13:18.266Z,7.60
2023-04-18T03:15:46.095Z,7.53
2023-04-18T03:18:13.456Z,5.07
2023-04-18T03:20:41.401Z,5.90
2023-04-18T03:23:08.503Z,5.63
2023-04-18T03:25:36.312Z,6.67
2023-04-18T03:28:04.803Z,7.20
2023-04-18T03:30:33.048Z,5.07
2023-04-18T03:33:03.019Z,6.37
2023-04-18T03:35:30.663Z,7.30
2023-04-18T03:37:57.635Z,9.30
2023-04-18T03:40:28.099Z,6.57
2023-04-18T03:43:00.272Z,6.53
2023-04-18T03:45:27.231Z,9.37
2023-04-18T03:47:55.217Z,9.47
2023-04-18T03:50:24.586Z,7.20
2023-04-18T03:52:53.673Z,9.43
2023-04-18T03:55:20.830Z,9.33
2023-04-18T03:57:47.776Z,8.67
2023-04-18T04:00:21.695Z,10.50
2023-04-18T04:02:58.885Z,8.50
2023-04-18T04:05:26.113Z,11.20
2023-04-18T04:07:52.971Z,11.13
2023-04-18T04:10:19.996Z,10.47
2023-04-18T04:12:48.599Z,11.17
2023-04-18T04:15:16.091Z,10.97
2023-04-18T04:17:50.788Z,11.27
2023-04-18T04:20:24.162Z,13.97
2023-04-18T04:22:59.064Z,12.03
2023-04-18T04:25:28.821Z,18.20
2023-04-18T04:28:01.612Z,16.90
2023-04-18T04:30:31.966Z,12.50
2023-04-18T04:33:00.023Z,11.50
2023-04-18T04:35:27.028Z,16.63
2023-04-18T04:37:53.973Z,16.07
2023-04-18T04:40:30.165Z,15.83
2023-04-18T04:43:15.741Z,15.20
2023-04-18T04:45:44.776Z,16.67
2023-04-18T04:48:12.269Z,15.43
2023-04-18T04:50:40.615Z,15.90
2023-04-18T04:53:07.953Z,18.17
2023-04-18T04:55:35.072Z,16.77
2023-04-18T04:58:04.146Z,15.13
2023-04-18T05:00:58.670Z,16.50
2023-04-18T05:03:26.477Z,19.40
2023-04-18T05:05:53.507Z,19.13
2023-04-18T05:08:20.427Z,17.70
2023-04-18T05:10:47.896Z,19.07
2023-04-18T05:13:14.691Z,25.30
2023-04-18T05:15:41.597Z,36.53
2023-04-18T05:18:08.842Z,24.03
2023-04-18T05:20:35.692Z,17.00
2023-04-18T05:23:02.592Z,25.60
2023-04-18T05:25:30.082Z,21.23
2023-04-18T05:27:56.965Z,19.50
2023-04-18T05:30:23.832Z,17.70
2023-04-18T05:32:50.657Z,17.57
2023-04-18T05:35:17.650Z,21.17
2023-04-18T05:37:45.025Z,20.60
2023-04-18T05:40:12.314Z,16.33
2023-04-18T05:42:39.222Z,59.40
2023-04-18T05:45:06.329Z,51.43
2023-04-18T05:47:33.799Z,24.57
2023-04-18T05:50:00.801Z,17.63
2023-04-18T05:52:27.679Z,16.77
2023-04-18T05:54:54.521Z,19.37
2023-04-18T05:57:21.480Z,21.53
2023-04-18T05:59:48.279Z,22.23
2023-04-18T06:02:15.251Z,20.57
2023-04-18T06:04:42.906Z,19.23
2023-04-18T06:07:10.298Z,19.97
2023-04-18T06:09:37.189Z,19.10
2023-04-18T06:12:04.310Z,24.73
2023-04-18T06:14:31.258Z,20.73
2023-04-18T06:16:58.680Z,21.20
2023-04-18T06:19:25.656Z,22.27
2023-04-18T06:21:52.748Z,19.13
2023-04-18T06:24:19.739Z,21.17
2023-04-18T06:26:46.736Z,32.70
2023-04-18T06:29:13.566Z,26.47
2023-04-18T06:31:42.300Z,24.13
2023-04-18T06:34:09.235Z,26.23
2023-04-18T06:36:36.481Z,22.03
2023-04-18T06:39:03.637Z,32.70
2023-04-18T06:41:30.554Z,25.87
2023-04-18T06:44:02.636Z,26.77
2023-04-18T06:46:30.402Z,24.17
2023-04-18T06:48:57.371Z,27.53
2023-04-18T06:51:24.168Z,24.87
2023-04-18T06:53:53.091Z,26.17
2023-04-18T06:56:20.715Z,25.87
2023-04-18T06:58:48.069Z,24.47
2023-04-18T07:01:15.092Z,35.13
2023-04-18T07:03:42.087Z,29.13
2023-04-18T07:06:10.679Z,25.90
2023-04-18T07:08:37.593Z,25.40
2023-04-18T07:11:04.504Z,23.37
2023-04-18T07:13:31.343Z,21.83
2023-04-18T07:15:58.248Z,23.83
2023-04-18T07:18:36.552Z,24.33
2023-04-18T07:21:07.521Z,22.17
2023-04-18T07:23:35.410Z,23.50
2023-04-18T07:26:03.296Z,21.00
2023-04-18T07:28:31.697Z,22.43
2023-04-18T07:30:59.012Z,22.03
2023-04-18T07:33:25.840Z,21.10
2023-04-18T07:35:53.311Z,22.23
2023-04-18T07:38:20.296Z,18.97
2023-04-18T07:40:47.312Z,23.30
2023-04-18T07:43:14.137Z,22.83
2023-04-18T07:45:43.454Z,20.70
2023-04-18T07:48:11.470Z,22.20
2023-04-18T07:50:38.900Z,21.70
2023-04-18T07:53:06.339Z,19.70
2023-04-18T07:55:33.249Z,19.80
2023-04-18T07:58:00.380Z,18.30
2023-04-18T08:00:28.922Z,21.10
2023-04-18T08:02:55.877Z,15.90
2023-04-18T08:05:22.981Z,18.17
2023-04-18T08:07:49.757Z,17.17
2023-04-18T08:10:16.642Z,19.33
2023-04-18T08:12:43.672Z,18.40
2023-04-18T08:15:10.953Z,16.27
2023-04-18T08:17:39.165Z,16.83
2023-04-18T08:20:06.816Z,18.50
2023-04-18T08:22:33.675Z,18.27
2023-04-18T08:25:05.456Z,21.07
2023-04-18T08:27:32.769Z,20.87
2023-04-18T08:29:59.755Z,17.93
2023-04-18T08:32:26.632Z,23.43
2023-04-18T08:34:53.395Z,17.43
2023-04-18T08:37:20.303Z,19.03
2023-04-18T08:39:48.367Z,17.43
2023-04-18T08:42:16.509Z,17.00
2023-04-18T08:44:43.588Z,18.40
2023-04-18T08:47:10.904Z,17.50
2023-04-18T08:49:38.335Z,17.33
2023-04-18T08:52:11.769Z,18.17
2023-04-18T08:54:42.147Z,18.90
2023-04-18T08:57:09.769Z,15.23
2023-04-18T08:59:36.986Z,14.53
2023-04-18T09:02:04.604Z,48.77
2023-04-18T09:04:52.755Z,18.03
2023-04-18T09:07:21.056Z,18.97
2023-04-18T09:09:49.354Z,15.97
2023-04-18T09:12:23.350Z,18.07
2023-04-18T09:14:51.430Z,14.13
2023-04-18T09:17:33.603Z,22.30
2023-04-18T09:20:01.566Z,24.67
2023-04-18T09:22:46.188Z,18.93
2023-04-18T09:25:24.001Z,19.30
2023-04-18T09:27:50.904Z,20.03
2023-04-18T09:30:34.871Z,18.03
2023-04-18T09:33:04.802Z,17.70
2023-04-18T09:35:31.853Z,17.20
2023-04-18T09:37:58.892Z,14.57
2023-04-18T09:40:25.720Z,18.37
2023-04-18T09:42:55.864Z,16.67
2023-04-18T09:45:23.794Z,20.53
2023-04-18T09:47:51.255Z,18.27
2023-04-18T09:50:18.889Z,16.50
2023-04-18T09:52:46.302Z,18.60
2023-04-18T09:55:17.027Z,15.07
2023-04-18T09:57:44.946Z,16.67
2023-04-18T10:00:25.547Z,17.30
2023-04-18T10:02:59.588Z,14.60
2023-04-18T10:05:32.421Z,15.37
2023-04-18T10:07:59.740Z,19.93
2023-04-18T10:10:26.618Z,15.17
2023-04-18T10:12:57.344Z,17.07
2023-04-18T10:15:25.603Z,20.63
2023-04-18T10:18:04.518Z,17.10
2023-04-18T10:20:33.268Z,18.17
2023-04-18T10:23:00.354Z,14.97
2023-04-18T10:25:38.789Z,18.33
2023-04-18T10:28:06.927Z,13.30
2023-04-18T10:30:42.717Z,21.63
2023-04-18T10:33:40.949Z,17.43
2023-04-18T10:36:09.541Z,13.97
2023-04-18T10:38:45.243Z,15.43
2023-04-18T10:41:24.276Z,15.57
2023-04-18T10:44:16.270Z,15.40
2023-04-18T10:47:04.051Z,19.47
2023-04-18T10:49:34.345Z,13.70
2023-04-18T10:52:02.075Z,16.23
2023-04-18T10:54:30.888Z,17.40
2023-04-18T10:56:58.840Z,21.07
2023-04-18T10:59:27.053Z,14.83
2023-04-18T11:02:04.831Z,18.50
2023-04-18T11:04:31.808Z,15.73
2023-04-18T11:06:58.938Z,15.63
2023-04-18T11:09:25.802Z,15.20
2023-04-18T11:12:06.861Z,17.87
2023-04-18T11:14:43.405Z,16.37
2023-04-18T11:17:17.290Z,17.70
2023-04-18T11:19:44.132Z,23.67
2023-04-18T11:22:11.658Z,14.27
2023-04-18T11:24:38.960Z,17.60
2023-04-18T11:27:06.039Z,13.60
2023-04-18T11:29:32.808Z,15.00
2023-04-18T11:31:59.714Z,12.33
2023-04-18T11:34:33.017Z,14.27
2023-04-18T11:37:00.420Z,15.10
2023-04-18T11:39:27.364Z,15.83
2023-04-18T11:41:56.591Z,12.73
2023-04-18T11:44:23.947Z,11.07
2023-04-18T11:46:51.671Z,11.13
2023-04-18T11:49:24.958Z,11.47
2023-04-18T11:51:51.866Z,10.27
2023-04-18T11:54:38.557Z,11.43
2023-04-18T11:57:06.425Z,17.53
2023-04-18T11:59:33.402Z,12.23
2023-04-18T12:02:15.341Z,12.53
2023-04-18T12:04:57.712Z,11.10
2023-04-18T12:07:50.881Z,16.17
2023-04-18T12:10:20.771Z,9.53
2023-04-18T12:12:48.804Z,19.57
2023-04-18T12:15:16.676Z,13.77
2023-04-18T12:17:44.435Z,12.43
2023-04-18T12:20:13.523Z,12.87
2023-04-18T12:22:50.280Z,14.00
2023-04-18T12:25:26.252Z,11.67
2023-04-18T12:27:58.234Z,9.60
2023-04-18T12:30:26.971Z,14.77
2023-04-18T12:32:55.249Z,13.07
2023-04-18T12:35:22.946Z,13.30
2023-04-18T12:37:50.467Z,15.90
2023-04-18T12:40:19.283Z,12.70
2023-04-18T12:42:46.826Z,18.03
2023-04-18T12:45:14.192Z,15.67
2023-04-18T12:47:41.843Z,11.57
2023-04-18T12:50:11.309Z,13.30
2023-04-18T12:52:40.839Z,11.73
2023-04-18T12:55:08.148Z,12.07
2023-04-18T12:57:35.432Z,12.83
2023-04-18T13:00:02.563Z,15.33
2023-04-18T13:02:49.549Z,14.87
2023-04-18T13:05:17.549Z,12.63
2023-04-18T13:07:44.831Z,10.43
2023-04-18T13:10:12.612Z,10.33
2023-04-18T13:12:39.971Z,12.40
2023-04-18T13:15:07.385Z,10.13
2023-04-18T13:17:36.951Z,14.97
2023-04-18T13:20:06.587Z,12.73
2023-04-18T13:22:34.076Z,15.83
2023-04-18T13:25:00.919Z,12.03
2023-04-18T13:27:27.846Z,11.90
2023-04-18T13:29:55.305Z,10.53
2023-04-18T13:32:22.190Z,8.00
2023-04-18T13:34:49.399Z,13.13
2023-04-18T13:37:16.249Z,15.77
2023-04-18T13:39:43.226Z,13.00
2023-04-18T13:42:10.162Z,13.63
2023-04-18T13:44:38.030Z,12.87
2023-04-18T13:47:05.670Z,10.70
2023-04-18T13:49:32.967Z,9.37
2023-04-18T13:51:59.925Z,12.30
2023-04-18T13:54:27.778Z,13.87
2023-04-18T13:56:54.984Z,13.30
2023-04-18T13:59:21.781Z,15.27
2023-04-18T14:01:49.310Z,13.40
2023-04-18T14:04:16.694Z,12.47
2023-04-18T14:06:43.723Z,12.70
2023-04-18T14:09:10.519Z,11.57
2023-04-18T14:11:37.828Z,13.87
2023-04-18T14:14:04.823Z,12.77
2023-04-18T14:16:48.830Z,13.80
2023-04-18T14:19:16.387Z,12.80
2023-04-18T14:21:43.277Z,12.67
2023-04-18T14:24:10.236Z,12.17
2023-04-18T14:26:37.407Z,10.23
2023-04-18T14:29:05.279Z,13.27
2023-04-18T14:31:32.113Z,12.13
2023-04-18T14:33:59.022Z,15.60
2023-04-18T14:36:26.467Z,13.20
2023-04-18T14:38:54.351Z,13.37
2023-04-18T14:41:21.325Z,15.53
2023-04-18T14:43:48.375Z,12.60
2023-04-18T14:46:18.368Z,12.77
2023-04-18T14:48:46.708Z,8.60
2023-04-18T14:51:14.884Z,17.77
2023-04-18T14:53:41.743Z,14.63
2023-04-18T14:56:08.942Z,14.33
2023-04-18T14:58:36.407Z,16.80
2023-04-18T15:01:04.281Z,22.37
2023-04-18T15:03:31.435Z,16.47
2023-04-18T15:05:58.395Z,18.93
2023-04-18T15:08:25.499Z,26.37
2023-04-18T15:10:52.328Z,21.03
2023-04-18T15:13:19.500Z,23.13
2023-04-18T15:15:56.478Z,21.17
2023-04-18T15:18:23.548Z,15.27
2023-04-18T15:20:51.275Z,20.40
2023-04-18T15:23:18.179Z,18.90
2023-04-18T15:25:45.710Z,20.20
2023-04-18T15:28:13.532Z,17.80
2023-04-18T15:30:40.853Z,18.03
2023-04-18T15:33:08.287Z,20.67
2023-04-18T15:35:36.122Z,21.00
2023-04-18T15:38:03.226Z,28.63
2023-04-18T15:40:30.120Z,21.67
2023-04-18T15:42:57.948Z,25.03
2023-04-18T15:45:24.834Z,22.67
2023-04-18T15:47:51.829Z,22.90
2023-04-18T15:50:18.768Z,25.63
2023-04-18T15:52:45.686Z,20.00
2023-04-18T15:55:13.270Z,21.47
2023-04-18T15:57:41.821Z,19.87
2023-04-18T16:00:16.469Z,22.13
2023-04-18T16:02:44.568Z,20.00
2023-04-18T16:05:12.634Z,20.73
2023-04-18T16:07:40.385Z,22.80
2023-04-18T16:10:10.504Z,21.77
2023-04-18T16:12:38.069Z,22.57
2023-04-18T16:15:06.105Z,19.27
2023-04-18T16:17:33.102Z,19.57
2023-04-18T16:19:59.993Z,25.07
2023-04-18T16:22:27.276Z,19.90
2023-04-18T16:24:54.089Z,18.87
2023-04-18T16:27:20.968Z,17.13
2023-04-18T16:29:48.065Z,19.97
2023-04-18T16:32:14.964Z,18.90
2023-04-18T16:34:41.799Z,20.43
2023-04-18T16:37:08.975Z,18.07
2023-04-18T16:39:35.878Z,20.40
2023-04-18T16:42:03.998Z,22.70
2023-04-18T16:44:30.976Z,20.20
2023-04-18T16:46:57.932Z,18.00
2023-04-18T16:49:25.430Z,17.40
2023-04-18T16:51:52.399Z,17.53
2023-04-18T16:54:19.216Z,20.90
2023-04-18T16:56:46.159Z,18.57
2023-04-18T16:59:13.068Z,21.00
2023-04-18T17:01:40.118Z,20.87
2023-04-18T17:04:07.079Z,19.23
2023-04-18T17:06:34.228Z,18.00
2023-04-18T17:09:01.036Z,21.33
2023-04-18T17:11:28.101Z,21.07
2023-04-18T17:13:54.983Z,18.03
2023-04-18T17:16:21.964Z,18.77
2023-04-18T17:18:48.860Z,22.73
2023-04-18T17:21:16.296Z,20.60
2023-04-18T17:23:43.070Z,21.93
2023-04-18T17:26:10.143Z,21.83
2023-04-18T17:28:37.111Z,20.50
2023-04-18T17:31:04.257Z,22.17
2023-04-18T17:33:31.405Z,22.47
2023-04-18T17:35:59.171Z,23.90
2023-04-18T17:38:25.954Z,24.13
2023-04-18T17:41:00.131Z,21.00
2023-04-18T17:43:27.221Z,22.87
2023-04-18T17:45:54.115Z,32.20
2023-04-18T17:48:22.578Z,25.20
2023-04-18T17:50:49.390Z,20.77
2023-04-18T17:53:17.598Z,25.93
2023-04-18T17:55:45.750Z,19.63
2023-04-18T17:58:12.873Z,24.30
2023-04-18T18:00:39.631Z,26.23
2023-04-18T18:03:09.099Z,22.90
2023-04-18T18:05:36.031Z,24.67
2023-04-18T18:08:02.908Z,22.37
2023-04-18T18:10:30.414Z,23.13
2023-04-18T18:12:57.548Z,29.63
2023-04-18T18:15:24.645Z,27.57
2023-04-18T18:17:52.193Z,23.03
2023-04-18T18:20:19.639Z,17.27
2023-04-18T18:22:47.433Z,19.20
2023-04-18T18:25:14.478Z,21.53
2023-04-18T18:27:41.392Z,18.90
2023-04-18T18:30:08.437Z,23.80
2023-04-18T18:32:35.413Z,21.20
2023-04-18T18:35:02.793Z,20.07
2023-04-18T18:37:29.735Z,18.63
2023-04-18T18:39:57.047Z,21.23
2023-04-18T18:42:23.997Z,19.47
2023-04-18T18:44:50.759Z,20.73
2023-04-18T18:47:18.187Z,19.73
2023-04-18T18:49:45.007Z,22.50
2023-04-18T18:52:11.888Z,24.33
2023-04-18T18:54:38.718Z,24.20
2023-04-18T18:57:05.696Z,22.33
2023-04-18T18:59:32.461Z,25.93
2023-04-18T19:01:59.747Z,43.70
2023-04-18T19:04:26.695Z,26.33
2023-04-18T19:06:53.968Z,28.63
2023-04-18T19:09:20.848Z,32.17
2023-04-18T19:11:47.743Z,29.47
2023-04-18T19:14:14.562Z,32.10
2023-04-18T19:16:41.584Z,32.13
2023-04-18T19:19:08.656Z,27.77
2023-04-18T19:21:35.579Z,26.83
2023-04-18T19:24:02.401Z,27.43
2023-04-18T19:26:29.373Z,26.90
2023-04-18T19:28:56.177Z,26.37
2023-04-18T19:31:23.405Z,32.83
2023-04-18T19:33:50.447Z,41.20
2023-04-18T19:36:17.339Z,45.93
2023-04-18T19:38:44.737Z,30.77
2023-04-18T19:41:11.617Z,29.93
2023-04-18T19:43:40.422Z,35.00
2023-04-18T19:46:07.379Z,32.53
2023-04-18T19:48:34.174Z,31.30
2023-04-18T19:51:01.730Z,34.67
2023-04-18T19:53:28.886Z,28.00
2023-04-18T19:55:56.478Z,27.07
2023-04-18T19:58:45.366Z,35.47
2023-04-18T20:01:12.900Z,30.90
2023-04-18T20:03:40.186Z,26.63
2023-04-18T20:06:07.804Z,29.90
2023-04-18T20:08:35.967Z,32.67
2023-04-18T20:11:04.107Z,28.43
2023-04-18T20:13:30.856Z,30.33
2023-04-18T20:15:57.841Z,26.40
2023-04-18T20:18:24.648Z,28.65
2023-04-18T20:20:51.670Z,29.87
2023-04-18T20:23:18.546Z,26.57
2023-04-18T20:25:45.497Z,26.77
2023-04-18T20:28:12.334Z,31.67
2023-04-18T20:30:39.306Z,28.63
2023-04-18T20:33:06.201Z,29.03
2023-04-18T20:35:33.104Z,32.80
2023-04-18T20:38:00.635Z,26.53
2023-04-18T20:40:28.680Z,28.63
2023-04-18T20:42:58.290Z,30.13
2023-04-18T20:45:25.709Z,29.77
2023-04-18T20:47:52.855Z,23.90
2023-04-18T20:50:21.056Z,27.83
2023-04-18T20:52:48.119Z,31.30
2023-04-18T20:55:18.756Z,27.63
2023-04-18T20:57:46.252Z,31.77
2023-04-18T21:00:17.311Z,30.00
2023-04-18T21:02:45.293Z,25.83
2023-04-18T21:05:12.457Z,28.43
2023-04-18T21:07:39.606Z,28.13
2023-04-18T21:10:06.859Z,24.77
2023-04-18T21:12:34.062Z,24.27
2023-04-18T21:15:01.395Z,30.23
2023-04-18T21:17:28.719Z,26.83
2023-04-18T21:19:56.478Z,26.30
2023-04-18T21:22:23.561Z,26.10
2023-04-18T21:24:50.327Z,27.90
2023-04-18T21:27:17.375Z,27.93
2023-04-18T21:29:45.216Z,26.03
2023-04-18T21:32:13.050Z,25.10
2023-04-18T21:34:40.226Z,30.67
2023-04-18T21:37:07.127Z,33.20
2023-04-18T21:39:33.922Z,31.20
2023-04-18T21:42:02.366Z,30.67
2023-04-18T21:44:29.518Z,26.67
2023-04-18T21:46:56.866Z,27.50
2023-04-18T21:49:24.736Z,27.33
2023-04-18T21:51:51.852Z,31.30
2023-04-18T21:54:18.668Z,26.97
2023-04-18T21:56:45.593Z,24.63
2023-04-18T21:59:12.506Z,23.97
2023-04-18T22:01:39.824Z,26.20
2023-04-18T22:04:07.654Z,25.80
2023-04-18T22:06:36.435Z,23.80
2023-04-18T22:09:06.486Z,23.17
2023-04-18T22:11:33.727Z,26.07
2023-04-18T22:14:00.645Z,22.33
2023-04-18T22:16:28.966Z,24.17
2023-04-18T22:18:55.930Z,26.87
2023-04-18T22:21:23.529Z,25.80
2023-04-18T22:23:50.307Z,22.23
2023-04-18T22:26:17.628Z,23.47
2023-04-18T22:28:45.024Z,23.00
2023-04-18T22:31:12.148Z,23.07
2023-04-18T22:33:38.978Z,27.77
2023-04-18T22:36:06.340Z,25.27
2023-04-18T22:38:33.119Z,26.53
2023-04-18T22:41:00.125Z,26.63
2023-04-18T22:43:27.085Z,24.23
2023-04-18T22:45:54.013Z,20.63
2023-04-18T22:48:20.832Z,23.00
2023-04-18T22:50:48.006Z,24.73
2023-04-18T22:53:15.286Z,26.30
2023-04-18T22:55:43.245Z,23.77
2023-04-18T22:58:11.242Z,25.40
2023-04-18T23:00:38.168Z,25.97
2023-04-18T23:03:05.285Z,24.50
2023-04-18T23:05:32.392Z,26.63
2023-04-18T23:08:00.605Z,23.10
2023-04-18T23:10:27.588Z,27.70
2023-04-18T23:12:54.699Z,31.53
2023-04-18T23:15:23.109Z,30.60
2023-04-18T23:17:52.013Z,27.53
2023-04-18T23:20:19.401Z,25.87
2023-04-18T23:22:47.043Z,29.00
2023-04-18T23:25:13.913Z,25.27
2023-04-18T23:27:40.749Z,26.83
2023-04-18T23:30:07.925Z,23.43
2023-04-18T23:32:34.905Z,25.07
2023-04-18T23:35:04.482Z,27.07
2023-04-18T23:37:31.644Z,29.10
2023-04-18T23:39:59.635Z,25.43
2023-04-18T23:42:26.415Z,27.87
2023-04-18T23:44:53.503Z,23.47
2023-04-18T23:47:20.546Z,22.97
2023-04-18T23:49:47.383Z,26.77
2023-04-18T23:52:14.240Z,23.27
2023-04-18T23:54:41.334Z,22.23
2023-04-18T23:57:08.229Z,27.27
2023-04-18T23:59:34.973Z,23.43
